ADDS METAR Data INFO
IDs: Format: Raw Decoded Include TAF

Data at: 0042 UTC 22 Oct 2017

KJFX 220035Z AUTO 00000KT 10SM CLR 18/17 A3018 RMK AO2 PWINO
KJFX 220015Z AUTO 00000KT 10SM CLR 19/17 A3018 RMK AO2 PWINO
KJFX 212355Z AUTO 00000KT 10SM CLR 20/17 A3017 RMK AO2 PWINO
KJFX 212335Z AUTO 00000KT 10SM CLR 20/17 A3016 RMK AO2 PWINO
KJFX 212315Z AUTO 00000KT 10SM CLR 22/17 A3015 RMK AO2 PWINO
KJFX 212255Z AUTO 00000KT 10SM CLR 23/17 A3015 RMK AO2 PWINO
KJFX 212235Z AUTO 00000KT 10SM CLR 24/17 A3015 RMK AO2 PWINO
KJFX 212215Z AUTO 00000KT 10SM CLR 24/16 A3015 RMK AO2 PWINO
KJFX 212155Z AUTO 00000KT 10SM CLR 24/16 A3015 RMK AO2 PWINO
KJFX 212135Z AUTO 01005G10KT 10SM CLR 25/16 A3015 RMK AO2 PWINO
KJFX 212115Z AUTO 00000KT 10SM CLR 26/16 A3016 RMK AO2 PWINO
KJFX 212055Z AUTO 01004KT 10SM CLR 26/16 A3016 RMK AO2 PWINO
KJFX 212035Z AUTO 00000KT 10SM CLR 26/16 A3015 RMK AO2 PWINO
KJFX 212015Z AUTO 01006KT 10SM CLR 27/16 A3016 RMK AO2 PWINO
KJFX 211955Z AUTO 01004G10KT 10SM FEW042 28/16 A3016 RMK AO2 PWINO
KJFX 211935Z AUTO 01007KT 10SM FEW042 28/16 A3016 RMK AO2 PWINO
KJFX 211915Z AUTO 01007KT 10SM CLR 28/16 A3016 RMK AO2 PWINO
KJFX 211855Z AUTO 01005G11KT 10SM CLR 28/17 A3017 RMK AO2 PWINO
KJFX 211835Z AUTO 01006G11KT 10SM FEW040 28/17 A3017 RMK AO2 PWINO
KJFX 211815Z AUTO 01007KT 10SM FEW039 28/17 A3018 RMK AO2 PWINO
KJFX 211755Z AUTO 01008KT 10SM FEW035 28/17 A3019 RMK AO2 PWINO
KJFX 211735Z AUTO 01008G14KT 10SM FEW035 29/18 A3020 RMK AO2 PWINO
KJFX 211715Z AUTO 01005G10KT 10SM CLR 26/18 A3021 RMK AO2 PWINO
KJFX 211655Z AUTO 01006KT 10SM CLR 26/18 A3022 RMK AO2 PWINO
KJFX 211635Z AUTO 01008KT 10SM CLR 25/17 A3022 RMK AO2 PWINO
KJFX 211615Z AUTO 01005G10KT 10SM CLR 24/17 A3022 RMK AO2 PWINO
KJFX 211555Z AUTO 01003KT 10SM CLR 24/17 A3022 RMK AO2 PWINO
KJFX 211535Z AUTO 00000KT 10SM CLR 23/17 A3023 RMK AO2 PWINO
KJFX 211515Z AUTO 01005KT 10SM CLR 22/16 A3023 RMK AO2 PWINO
KJFX 211455Z AUTO 01007KT 10SM CLR 21/15 A3023 RMK AO2 PWINO
KJFX 211435Z AUTO 01006KT 10SM CLR 20/15 A3024 RMK AO2 PWINO
KJFX 211415Z AUTO 01004KT 7SM CLR 19/14 A3023 RMK AO2 PWINO
KJFX 211355Z AUTO 01004KT 10SM CLR 17/14 A3024 RMK AO2 PWINO
KJFX 211335Z AUTO 00000KT 10SM CLR 15/14 A3024 RMK AO2 PWINO
KJFX 211315Z AUTO 00000KT 10SM CLR 13/13 A3023 RMK AO2 PWINO
KJFX 211255Z AUTO 00000KT 10SM CLR 11/11 A3022 RMK AO2 PWINO
KJFX 211235Z AUTO 00000KT 10SM CLR 10/10 A3022 RMK AO2 PWINO
KJFX 211215Z AUTO 00000KT 10SM SCT046 09/09 A3021 RMK AO2 PWINO
KJFX 211155Z AUTO 00000KT 10SM SCT047 09/09 A3021 RMK AO2 PWINO
KJFX 211135Z AUTO 00000KT 10SM CLR 09/09 A3020 RMK AO2 PWINO
KJFX 211115Z AUTO 00000KT 10SM FEW048 08/08 A3019 RMK AO2 PWINO
KJFX 211055Z AUTO 00000KT 10SM CLR 08/08 A3019 RMK AO2 PWINO
KJFX 211035Z AUTO 00000KT 10SM CLR 08/08 A3019 RMK AO2 PWINO
KJFX 211015Z AUTO 00000KT 10SM CLR 08/08 A3018 RMK AO2 PWINO
KJFX 210955Z AUTO 00000KT 10SM CLR 09/09 A3017 RMK AO2 PWINO
KJFX 210935Z AUTO 00000KT 10SM CLR 09/09 A3016 RMK AO2 PWINO
KJFX 210915Z AUTO 00000KT 9SM CLR 09/09 A3016 RMK AO2 PWINO
KJFX 210855Z AUTO 00000KT 8SM CLR 09/09 A3017 RMK AO2 PWINO
KJFX 210835Z AUTO 00000KT 7SM CLR 09/09 A3016 RMK AO2 PWINO
KJFX 210815Z AUTO 00000KT 8SM CLR 09/09 A3016 RMK AO2 PWINO
KJFX 210755Z AUTO 00000KT 5SM BR CLR 10/10 A3016 RMK AO2 PWINO
KJFX 210735Z AUTO 00000KT 9SM CLR 09/09 A3016 RMK AO2 PWINO
KJFX 210715Z AUTO 00000KT 10SM CLR 10/10 A3017 RMK AO2 PWINO
KJFX 210655Z AUTO 00000KT 7SM CLR 09/09 A3018 RMK AO2 PWINO
KJFX 210635Z AUTO 00000KT 9SM CLR 09/09 A3018 RMK AO2 PWINO
KJFX 210615Z AUTO 00000KT 3/4SM BR VV005 09/09 A3018 RMK AO2 PWINO
KJFX 210555Z AUTO 00000KT M1/4SM FG VV000 10/10 A3018 RMK AO2 PWINO
KJFX 210535Z AUTO 00000KT 2SM BR CLR 10/10 A3017 RMK AO2 VIS 1V5 PWINO
KJFX 210515Z AUTO 00000KT 3/4SM BR VV005 10/10 A3018 RMK AO2 PWINO
KJFX 210455Z AUTO 00000KT 2SM BR CLR 10/10 A3018 RMK AO2 PWINO
KJFX 210435Z AUTO 00000KT 7SM CLR 10/11 A3018 RMK AO2 PWINO
KJFX 210415Z AUTO 00000KT 7SM CLR 11/11 A3018 RMK AO2 PWINO
KJFX 210355Z AUTO 00000KT 7SM CLR 11/11 A3018 RMK AO2 PWINO
KJFX 210335Z AUTO 00000KT 10SM CLR 11/11 A3018 RMK AO2 PWINO
KJFX 210315Z AUTO 00000KT 3SM BR CLR 11/11 A3018 RMK AO2 PWINO
KJFX 210255Z AUTO 00000KT 6SM BR CLR 11/11 A3018 RMK AO2 PWINO
KJFX 210235Z AUTO 00000KT 1/2SM BR VV005 12/12 A3018 RMK AO2 PWINO
KJFX 210215Z AUTO 00000KT 10SM CLR 12/12 A3018 RMK AO2 PWINO
KJFX 210155Z AUTO 00000KT 1SM BR CLR 13/13 A3017 RMK AO2 PWINO
KJFX 210135Z AUTO 00000KT 10SM CLR 13/13 A3017 RMK AO2 PWINO
KJFX 210115Z AUTO 00000KT 10SM CLR 13/13 A3017 RMK AO2 PWINO
KJFX 210055Z AUTO 00000KT 1/4SM FG VV002 13/13 A3017 RMK AO2 VIS 1/4V5 PWINO
KJFX 210035Z AUTO 00000KT 3/4SM BR VV005 14/14 A3016 RMK AO2 VIS 1/4V5 PWINO
KJFX 210015Z AUTO 00000KT 10SM CLR 14/14 A3017 RMK AO2 PWINO
KJFX 202355Z AUTO 00000KT 10SM CLR 15/15 A3016 RMK AO2 PWINO
KJFX 202335Z AUTO 00000KT 10SM CLR 16/15 A3016 RMK AO2 PWINO
KJFX 202315Z AUTO 00000KT 10SM CLR 17/16 A3016 RMK AO2 PWINO
KJFX 202255Z AUTO 00000KT 10SM CLR 19/16 A3016 RMK AO2 PWINO
KJFX 202235Z AUTO 00000KT 10SM CLR 22/15 A3016 RMK AO2 PWINO
KJFX 202215Z AUTO 00000KT 9SM CLR 25/15 A3015 RMK AO2 PWINO
KJFX 202155Z AUTO 00000KT 10SM CLR 26/14 A3015 RMK AO2 PWINO
KJFX 202135Z AUTO 00000KT 10SM CLR 25/13 A3016 RMK AO2 PWINO
KJFX 202115Z AUTO 00000KT 10SM CLR 26/12 A3016 RMK AO2 PWINO
KJFX 202055Z AUTO 00000KT 10SM CLR 27/11 A3016 RMK AO2 PWINO
KJFX 202035Z AUTO 00000KT 10SM CLR 29/11 A3016 RMK AO2 PWINO
KJFX 202015Z AUTO 00000KT 10SM CLR 29/13 A3016 RMK AO2 PWINO
KJFX 201955Z AUTO 00000G10KT 10SM CLR 28/12 A3016 RMK AO2 PWINO
KJFX 201935Z AUTO 01003KT 10SM CLR 28/12 A3017 RMK AO2 PWINO
KJFX 201915Z AUTO 00000KT 10SM CLR 28/12 A3018 RMK AO2 PWINO
KJFX 201855Z AUTO 36004KT 10SM CLR 29/12 A3019 RMK AO2 PWINO
KJFX 201835Z AUTO 00000KT 10SM CLR 28/13 A3020 RMK AO2 PWINO
KJFX 201815Z AUTO 00000KT 10SM CLR 28/13 A3021 RMK AO2 PWINO
KJFX 201755Z AUTO 00000KT 10SM CLR 27/13 A3023 RMK AO2 PWINO
KJFX 201735Z AUTO 00000KT 10SM CLR 26/13 A3024 RMK AO2 PWINO
KJFX 201715Z AUTO 00000KT 10SM CLR 24/13 A3026 RMK AO2 PWINO
KJFX 201655Z AUTO 00000KT 10SM CLR 25/13 A3026 RMK AO2 PWINO
KJFX 201635Z AUTO 00000KT 10SM CLR 24/13 A3027 RMK AO2 PWINO
KJFX 201615Z AUTO 00000KT 10SM CLR 24/12 A3028 RMK AO2 PWINO
KJFX 201555Z AUTO 00000KT 10SM CLR 23/13 A3029 RMK AO2 PWINO
KJFX 201535Z AUTO 00000KT 10SM CLR 21/12 A3029 RMK AO2 PWINO
KJFX 201515Z AUTO 00000KT 10SM CLR 19/13 A3029 RMK AO2 PWINO
KJFX 201455Z AUTO 00000KT 10SM CLR 18/13 A3030 RMK AO2 PWINO
KJFX 201435Z AUTO 00000KT 10SM CLR 15/13 A3030 RMK AO2 PWINO
KJFX 201415Z AUTO 00000KT 10SM CLR 14/14 A3030 RMK AO2 PWINO
KJFX 201355Z AUTO 00000KT 10SM CLR 12/12 A3029 RMK AO2 PWINO
KJFX 201335Z AUTO 00000KT 10SM CLR 10/10 A3029 RMK AO2 PWINO
KJFX 201315Z AUTO 00000KT 10SM CLR 09/09 A3028 RMK AO2 PWINO
KJFX 201255Z AUTO 00000KT 10SM CLR 07/07 A3028 RMK AO2 PWINO